Suehiro Maru No.8 — JK5423 — position and weather

sailwx.info

Track history (hours):
 
Tides and Currents Weather Stations Pressure Air Temp Water Temp Dewpoint Dewpoint Depression Visibility Wind Speed Wind Dir Waves Ship Positions

Suehiro Maru No.8

Last reported at 2017-Jan-24 18:33 UTC. Time now 2017-Jan-24 19:26 UTC.
Position N 35°35' E 139°52'.

Length 88 m; draft 5.8 m.

Type: Cargo ship. MMSI: 431400446.

Date/timePositionNaut miles runAvg speedWind from/ knotsBaromVisibWave heightAir tempDewpointWater temp
2017-Jan-24 18:33N 35°35' E 139°52'0 0.0
2017-Jan-24 17:29N 35°35' E 139°52'0 0.0
2017-Jan-24 16:31N 35°35' E 139°52'0 0.0
2017-Jan-24 15:28N 35°35' E 139°52'0 0.0
2017-Jan-24 14:33N 35°35' E 139°52'0 0.0
2017-Jan-24 13:34N 35°35' E 139°52'0 0.0
2017-Jan-24 12:33N 35°35' E 139°52'0 0.0
2017-Jan-24 11:33N 35°35' E 139°52'4 3.7
2017-Jan-24 10:33N 35°31' E 139°52'9 9.2
2017-Jan-24 09:33N 35°22' E 139°52'0 0.0
2017-Jan-24 08:29N 35°22' E 139°52'0 0.0
2017-Jan-24 07:33N 35°22' E 139°52'0 0.0
2017-Jan-24 06:33N 35°22' E 139°52'0 0.0
2017-Jan-24 05:33N 35°22' E 139°52'0 0.0
2017-Jan-24 04:33N 35°22' E 139°52'0 0.0
2017-Jan-24 03:30N 35°22' E 139°52'2 1.9
2017-Jan-24 02:33N 35°23' E 139°51'0 0.0
2017-Jan-24 01:33N 35°23' E 139°51'0 0.0
2017-Jan-24 00:32N 35°23' E 139°51'0 0.0
2017-Jan-23 23:33N 35°23' E 139°51'0 0.0
2017-Jan-23 22:33N 35°23' E 139°51'0 0.0
2017-Jan-23 21:33N 35°23' E 139°51'0 0.0
2017-Jan-23 20:33N 35°23' E 139°51'0 0.0
2017-Jan-23 19:33N 35°23' E 139°51'0 0.0
2017-Jan-23 18:33N 35°23' E 139°51'0 0.0
2017-Jan-23 17:33N 35°23' E 139°51'0 0.2
2017-Jan-23 16:33N 35°23' E 139°51'8 8.1
2017-Jan-23 15:33N 35°16' E 139°47'  
2017-Jan-20 21:33N 34°02' E 135°03'1212.3
2017-Jan-20 20:33N 34°14' E 135°06'1 0.8
2017-Jan-20 19:33N 34°15' E 135°07'0 0.0
2017-Jan-20 18:33N 34°15' E 135°07'0 0.0
2017-Jan-20 17:33N 34°15' E 135°07'0 0.0
2017-Jan-20 16:33N 34°15' E 135°07'0 0.0
2017-Jan-20 15:33N 34°15' E 135°07'0 0.0
2017-Jan-20 14:33N 34°15' E 135°07'0 0.0
2017-Jan-20 13:34N 34°15' E 135°07'0 0.0
2017-Jan-20 12:33N 34°15' E 135°07'0 0.0
2017-Jan-20 11:33N 34°15' E 135°07'0 0.0
2017-Jan-20 10:33N 34°15' E 135°07'0 0.0
2017-Jan-20 09:33N 34°15' E 135°07'0 0.0
2017-Jan-20 08:33N 34°15' E 135°07'2 1.6
2017-Jan-20 07:34N 34°15' E 135°05'0 0.0
2017-Jan-20 06:33N 34°15' E 135°05'0 0.0
2017-Jan-20 05:33N 34°15' E 135°05'0 0.1
2017-Jan-20 04:33N 34°15' E 135°05'0 0.0
2017-Jan-20 03:33N 34°15' E 135°05'0 0.0
2017-Jan-20 02:33N 34°15' E 135°05'0 0.0
2017-Jan-20 01:33N 34°15' E 135°05'0 0.1
2017-Jan-20 00:33N 34°15' E 135°05'0 0.1
2017-Jan-19 23:33N 34°15' E 135°05'0 0.1
2017-Jan-19 22:34N 34°15' E 135°05'0 0.0
2017-Jan-19 21:33N 34°15' E 135°05'0 0.0
2017-Jan-19 20:33N 34°15' E 135°05'0 0.0
2017-Jan-19 19:33N 34°15' E 135°05'0 0.0
2017-Jan-19 18:33N 34°15' E 135°05'0 0.0
2017-Jan-19 17:33N 34°15' E 135°05'0 0.0
2017-Jan-19 16:33N 34°15' E 135°05'0 0.0
2017-Jan-19 15:33N 34°15' E 135°05'0 0.0
2017-Jan-19 14:33N 34°15' E 135°05'0 0.0
2017-Jan-19 13:33N 34°15' E 135°05'0 0.0
2017-Jan-19 12:33N 34°15' E 135°05'0 0.0
2017-Jan-19 11:33N 34°15' E 135°05'0 0.0
2017-Jan-19 10:33N 34°15' E 135°05'0 0.0
2017-Jan-19 09:33N 34°15' E 135°05'0 0.1
2017-Jan-19 08:34N 34°15' E 135°05'0 0.0
2017-Jan-19 07:33N 34°15' E 135°05'0 0.0
2017-Jan-19 06:33N 34°15' E 135°05'0 0.0
2017-Jan-19 05:33N 34°15' E 135°05'0 0.0
2017-Jan-19 04:33N 34°15' E 135°05'0 0.0
2017-Jan-19 03:33N 34°15' E 135°05'0 0.0
2017-Jan-19 02:33N 34°15' E 135°05'0 0.1
2017-Jan-19 01:33N 34°15' E 135°05'0 0.0
2017-Jan-19 00:33N 34°15' E 135°05'0 0.0
2017-Jan-18 23:33N 34°15' E 135°05'0 0.0
2017-Jan-18 22:33N 34°15' E 135°05'0 0.0
2017-Jan-18 21:33N 34°15' E 135°05'0 0.0
2017-Jan-18 20:33N 34°15' E 135°05'0 0.1
2017-Jan-18 19:33N 34°15' E 135°05'0 0.0
2017-Jan-18 18:34N 34°15' E 135°05'0 0.1
2017-Jan-18 17:33N 34°15' E 135°05'0 0.0
2017-Jan-18 16:33N 34°15' E 135°05'0 0.0
2017-Jan-18 15:33N 34°15' E 135°05'0 0.0
2017-Jan-18 14:33N 34°15' E 135°05'0 0.0
2017-Jan-18 13:34N 34°15' E 135°05'0 0.0
2017-Jan-18 12:33N 34°15' E 135°05'0 0.0
2017-Jan-18 11:33N 34°15' E 135°05'0 0.1
2017-Jan-18 10:33N 34°15' E 135°05'0 0.0
2017-Jan-18 09:33N 34°15' E 135°05'0 0.1
2017-Jan-18 08:33N 34°15' E 135°05'1111.4
2017-Jan-18 07:33N 34°26' E 135°04'1211.5
2017-Jan-18 06:33N 34°37' E 134°58'  
Track history (hours):
 
Tides and Currents Weather Stations Pressure Air Temp Water Temp Dewpoint Dewpoint Depression Visibility Wind Speed Wind Dir Waves Ship Positions

Suehiro Maru No.8

Last reported at 2017-Jan-24 18:33 UTC. Time now 2017-Jan-24 19:26 UTC.
Position N 35°35' E 139°52'.

Length 88 m; draft 5.8 m.

Type: Cargo ship. MMSI: 431400446.

Date/timePositionNaut miles runAvg speedWind from/ knotsBaromVisibWave heightAir tempDewpointWater temp
2017-Jan-24 18:33N 35°35' E 139°52'0 0.0
2017-Jan-24 17:29N 35°35' E 139°52'0 0.0
2017-Jan-24 16:31N 35°35' E 139°52'0 0.0
2017-Jan-24 15:28N 35°35' E 139°52'0 0.0
2017-Jan-24 14:33N 35°35' E 139°52'0 0.0
2017-Jan-24 13:34N 35°35' E 139°52'0 0.0
2017-Jan-24 12:33N 35°35' E 139°52'0 0.0
2017-Jan-24 11:33N 35°35' E 139°52'4 3.7
2017-Jan-24 10:33N 35°31' E 139°52'9 9.2
2017-Jan-24 09:33N 35°22' E 139°52'0 0.0
2017-Jan-24 08:29N 35°22' E 139°52'0 0.0
2017-Jan-24 07:33N 35°22' E 139°52'0 0.0
2017-Jan-24 06:33N 35°22' E 139°52'0 0.0
2017-Jan-24 05:33N 35°22' E 139°52'0 0.0
2017-Jan-24 04:33N 35°22' E 139°52'0 0.0
2017-Jan-24 03:30N 35°22' E 139°52'2 1.9
2017-Jan-24 02:33N 35°23' E 139°51'0 0.0
2017-Jan-24 01:33N 35°23' E 139°51'0 0.0
2017-Jan-24 00:32N 35°23' E 139°51'0 0.0
2017-Jan-23 23:33N 35°23' E 139°51'0 0.0
2017-Jan-23 22:33N 35°23' E 139°51'0 0.0
2017-Jan-23 21:33N 35°23' E 139°51'0 0.0
2017-Jan-23 20:33N 35°23' E 139°51'0 0.0
2017-Jan-23 19:33N 35°23' E 139°51'0 0.0
2017-Jan-23 18:33N 35°23' E 139°51'0 0.0
2017-Jan-23 17:33N 35°23' E 139°51'0 0.2
2017-Jan-23 16:33N 35°23' E 139°51'8 8.1
2017-Jan-23 15:33N 35°16' E 139°47'  
2017-Jan-20 21:33N 34°02' E 135°03'1212.3
2017-Jan-20 20:33N 34°14' E 135°06'1 0.8
2017-Jan-20 19:33N 34°15' E 135°07'0 0.0
2017-Jan-20 18:33N 34°15' E 135°07'0 0.0
2017-Jan-20 17:33N 34°15' E 135°07'0 0.0
2017-Jan-20 16:33N 34°15' E 135°07'0 0.0
2017-Jan-20 15:33N 34°15' E 135°07'0 0.0
2017-Jan-20 14:33N 34°15' E 135°07'0 0.0
2017-Jan-20 13:34N 34°15' E 135°07'0 0.0
2017-Jan-20 12:33N 34°15' E 135°07'0 0.0
2017-Jan-20 11:33N 34°15' E 135°07'0 0.0
2017-Jan-20 10:33N 34°15' E 135°07'0 0.0
2017-Jan-20 09:33N 34°15' E 135°07'0 0.0
2017-Jan-20 08:33N 34°15' E 135°07'2 1.6
2017-Jan-20 07:34N 34°15' E 135°05'0 0.0
2017-Jan-20 06:33N 34°15' E 135°05'0 0.0
2017-Jan-20 05:33N 34°15' E 135°05'0 0.1
2017-Jan-20 04:33N 34°15' E 135°05'0 0.0
2017-Jan-20 03:33N 34°15' E 135°05'0 0.0
2017-Jan-20 02:33N 34°15' E 135°05'0 0.0
2017-Jan-20 01:33N 34°15' E 135°05'0 0.1
2017-Jan-20 00:33N 34°15' E 135°05'0 0.1
2017-Jan-19 23:33N 34°15' E 135°05'0 0.1
2017-Jan-19 22:34N 34°15' E 135°05'0 0.0
2017-Jan-19 21:33N 34°15' E 135°05'0 0.0
2017-Jan-19 20:33N 34°15' E 135°05'0 0.0
2017-Jan-19 19:33N 34°15' E 135°05'0 0.0
2017-Jan-19 18:33N 34°15' E 135°05'0 0.0
2017-Jan-19 17:33N 34°15' E 135°05'0 0.0
2017-Jan-19 16:33N 34°15' E 135°05'0 0.0
2017-Jan-19 15:33N 34°15' E 135°05'0 0.0
2017-Jan-19 14:33N 34°15' E 135°05'0 0.0
2017-Jan-19 13:33N 34°15' E 135°05'0 0.0
2017-Jan-19 12:33N 34°15' E 135°05'0 0.0
2017-Jan-19 11:33N 34°15' E 135°05'0 0.0
2017-Jan-19 10:33N 34°15' E 135°05'0 0.0
2017-Jan-19 09:33N 34°15' E 135°05'0 0.1
2017-Jan-19 08:34N 34°15' E 135°05'0 0.0
2017-Jan-19 07:33N 34°15' E 135°05'0 0.0
2017-Jan-19 06:33N 34°15' E 135°05'0 0.0
2017-Jan-19 05:33N 34°15' E 135°05'0 0.0
2017-Jan-19 04:33N 34°15' E 135°05'0 0.0
2017-Jan-19 03:33N 34°15' E 135°05'0 0.0
2017-Jan-19 02:33N 34°15' E 135°05'0 0.1
2017-Jan-19 01:33N 34°15' E 135°05'0 0.0
2017-Jan-19 00:33N 34°15' E 135°05'0 0.0
2017-Jan-18 23:33N 34°15' E 135°05'0 0.0
2017-Jan-18 22:33N 34°15' E 135°05'0 0.0
2017-Jan-18 21:33N 34°15' E 135°05'0 0.0
2017-Jan-18 20:33N 34°15' E 135°05'0 0.1
2017-Jan-18 19:33N 34°15' E 135°05'0 0.0
2017-Jan-18 18:34N 34°15' E 135°05'0 0.1
2017-Jan-18 17:33N 34°15' E 135°05'0 0.0
2017-Jan-18 16:33N 34°15' E 135°05'0 0.0
2017-Jan-18 15:33N 34°15' E 135°05'0 0.0
2017-Jan-18 14:33N 34°15' E 135°05'0 0.0
2017-Jan-18 13:34N 34°15' E 135°05'0 0.0
2017-Jan-18 12:33N 34°15' E 135°05'0 0.0
2017-Jan-18 11:33N 34°15' E 135°05'0 0.1
2017-Jan-18 10:33N 34°15' E 135°05'0 0.0
2017-Jan-18 09:33N 34°15' E 135°05'0 0.1
2017-Jan-18 08:33N 34°15' E 135°05'1111.4
2017-Jan-18 07:33N 34°26' E 135°04'1211.5
2017-Jan-18 06:33N 34°37' E 134°58'  

Dump ship's entire track history